sensor_id;sensor_type;location;lat;lon;timestamp;temperature;humidity
78571;SHT31;67861;51.966;5.672;2023-08-06T00:00:54;19.2;67.2
78571;SHT31;67861;51.966;5.672;2023-08-06T00:03:23;19.2;66.6
78571;SHT31;67861;51.966;5.672;2023-08-06T00:05:51;19.2;66.8
78571;SHT31;67861;51.966;5.672;2023-08-06T00:08:20;19.2;67.0
78571;SHT31;67861;51.966;5.672;2023-08-06T00:10:49;19.2;66.9
78571;SHT31;67861;51.966;5.672;2023-08-06T00:13:17;19.2;67.1
78571;SHT31;67861;51.966;5.672;2023-08-06T00:15:46;19.2;67.0
78571;SHT31;67861;51.966;5.672;2023-08-06T00:18:15;19.2;67.0
78571;SHT31;67861;51.966;5.672;2023-08-06T00:20:43;19.2;67.1
78571;SHT31;67861;51.966;5.672;2023-08-06T00:23:12;19.1;67.2
78571;SHT31;67861;51.966;5.672;2023-08-06T00:25:40;19.1;67.5
78571;SHT31;67861;51.966;5.672;2023-08-06T00:28:09;19.1;67.5
78571;SHT31;67861;51.966;5.672;2023-08-06T00:30:37;19.1;67.6
78571;SHT31;67861;51.966;5.672;2023-08-06T00:33:06;19.1;67.7
78571;SHT31;67861;51.966;5.672;2023-08-06T00:35:34;19.1;67.9
78571;SHT31;67861;51.966;5.672;2023-08-06T00:38:03;19.1;67.7
78571;SHT31;67861;51.966;5.672;2023-08-06T00:40:31;19.1;68.0
78571;SHT31;67861;51.966;5.672;2023-08-06T00:43:00;19.1;68.2
78571;SHT31;67861;51.966;5.672;2023-08-06T00:45:30;19.1;67.8
78571;SHT31;67861;51.966;5.672;2023-08-06T00:48:04;19.1;67.9
78571;SHT31;67861;51.966;5.672;2023-08-06T00:50:34;19.1;68.1
78571;SHT31;67861;51.966;5.672;2023-08-06T00:53:03;19.2;68.1
78571;SHT31;67861;51.966;5.672;2023-08-06T00:55:32;19.2;68.0
78571;SHT31;67861;51.966;5.672;2023-08-06T00:58:01;19.2;67.7
78571;SHT31;67861;51.966;5.672;2023-08-06T01:00:30;19.2;68.0
78571;SHT31;67861;51.966;5.672;2023-08-06T01:02:59;19.2;68.2
78571;SHT31;67861;51.966;5.672;2023-08-06T01:05:30;19.2;68.4
78571;SHT31;67861;51.966;5.672;2023-08-06T01:08:12;19.2;68.4
78571;SHT31;67861;51.966;5.672;2023-08-06T01:10:56;19.2;68.6
78571;SHT31;67861;51.966;5.672;2023-08-06T01:13:33;19.2;68.6
78571;SHT31;67861;51.966;5.672;2023-08-06T01:16:06;19.2;68.7
78571;SHT31;67861;51.966;5.672;2023-08-06T01:18:35;19.2;68.9
78571;SHT31;67861;51.966;5.672;2023-08-06T01:21:05;19.2;68.7
78571;SHT31;67861;51.966;5.672;2023-08-06T01:23:34;19.2;69.0
78571;SHT31;67861;51.966;5.672;2023-08-06T01:26:10;19.2;69.1
78571;SHT31;67861;51.966;5.672;2023-08-06T01:28:50;19.2;69.1
78571;SHT31;67861;51.966;5.672;2023-08-06T01:31:21;19.2;69.1
78571;SHT31;67861;51.966;5.672;2023-08-06T01:33:52;19.2;69.3
78571;SHT31;67861;51.966;5.672;2023-08-06T01:36:22;19.1;69.4
78571;SHT31;67861;51.966;5.672;2023-08-06T01:38:53;19.1;69.6
78571;SHT31;67861;51.966;5.672;2023-08-06T01:41:21;19.1;69.7
78571;SHT31;67861;51.966;5.672;2023-08-06T01:43:50;19.1;69.9
78571;SHT31;67861;51.966;5.672;2023-08-06T01:46:18;19.1;69.5
78571;SHT31;67861;51.966;5.672;2023-08-06T01:48:47;19.1;69.6
78571;SHT31;67861;51.966;5.672;2023-08-06T01:51:17;19.1;69.3
78571;SHT31;67861;51.966;5.672;2023-08-06T01:53:46;19.1;69.8
78571;SHT31;67861;51.966;5.672;2023-08-06T01:56:14;19.1;69.9
78571;SHT31;67861;51.966;5.672;2023-08-06T01:58:43;19.0;70.0
78571;SHT31;67861;51.966;5.672;2023-08-06T02:01:11;19.0;70.2
78571;SHT31;67861;51.966;5.672;2023-08-06T02:03:40;19.0;70.0
78571;SHT31;67861;51.966;5.672;2023-08-06T02:06:08;19.0;70.4
78571;SHT31;67861;51.966;5.672;2023-08-06T02:08:37;19.0;70.3
78571;SHT31;67861;51.966;5.672;2023-08-06T02:11:08;19.0;70.3
78571;SHT31;67861;51.966;5.672;2023-08-06T02:13:38;19.0;70.2
78571;SHT31;67861;51.966;5.672;2023-08-06T02:16:08;19.0;70.1
78571;SHT31;67861;51.966;5.672;2023-08-06T02:18:37;19.1;70.3
78571;SHT31;67861;51.966;5.672;2023-08-06T02:21:05;19.1;70.1
78571;SHT31;67861;51.966;5.672;2023-08-06T02:23:34;19.1;70.0
78571;SHT31;67861;51.966;5.672;2023-08-06T02:26:04;19.1;69.9
78571;SHT31;67861;51.966;5.672;2023-08-06T02:28:33;19.1;69.8
78571;SHT31;67861;51.966;5.672;2023-08-06T02:31:01;19.1;69.6
78571;SHT31;67861;51.966;5.672;2023-08-06T02:33:30;19.1;69.7
78571;SHT31;67861;51.966;5.672;2023-08-06T02:36:02;19.1;70.1
78571;SHT31;67861;51.966;5.672;2023-08-06T02:38:32;19.2;69.8
78571;SHT31;67861;51.966;5.672;2023-08-06T02:41:02;19.2;69.7
78571;SHT31;67861;51.966;5.672;2023-08-06T02:43:30;19.2;69.8
78571;SHT31;67861;51.966;5.672;2023-08-06T02:46:01;19.2;69.4
78571;SHT31;67861;51.966;5.672;2023-08-06T02:48:31;19.2;69.3
78571;SHT31;67861;51.966;5.672;2023-08-06T02:51:00;19.2;69.2
78571;SHT31;67861;51.966;5.672;2023-08-06T02:53:28;19.2;69.2
78571;SHT31;67861;51.966;5.672;2023-08-06T02:55:58;19.2;69.2
78571;SHT31;67861;51.966;5.672;2023-08-06T02:58:26;19.2;69.3
78571;SHT31;67861;51.966;5.672;2023-08-06T03:01:03;19.2;69.1
78571;SHT31;67861;51.966;5.672;2023-08-06T03:03:35;19.2;68.9
78571;SHT31;67861;51.966;5.672;2023-08-06T03:06:04;19.2;69.1
78571;SHT31;67861;51.966;5.672;2023-08-06T03:08:32;19.2;69.2
78571;SHT31;67861;51.966;5.672;2023-08-06T03:11:01;19.2;69.3
78571;SHT31;67861;51.966;5.672;2023-08-06T03:13:31;19.2;69.2
78571;SHT31;67861;51.966;5.672;2023-08-06T03:16:00;19.2;69.3
78571;SHT31;67861;51.966;5.672;2023-08-06T03:18:28;19.2;69.3
78571;SHT31;67861;51.966;5.672;2023-08-06T03:20:57;19.2;69.2
78571;SHT31;67861;51.966;5.672;2023-08-06T03:23:26;19.2;69.4
78571;SHT31;67861;51.966;5.672;2023-08-06T03:25:54;19.2;69.2
78571;SHT31;67861;51.966;5.672;2023-08-06T03:28:22;19.2;69.2
78571;SHT31;67861;51.966;5.672;2023-08-06T03:31:00;19.1;69.2
78571;SHT31;67861;51.966;5.672;2023-08-06T03:33:29;19.1;69.2
78571;SHT31;67861;51.966;5.672;2023-08-06T03:35:58;19.1;69.3
78571;SHT31;67861;51.966;5.672;2023-08-06T03:38:27;19.1;69.0
78571;SHT31;67861;51.966;5.672;2023-08-06T03:40:56;19.1;69.1
78571;SHT31;67861;51.966;5.672;2023-08-06T03:43:24;19.1;69.1
78571;SHT31;67861;51.966;5.672;2023-08-06T03:45:52;19.1;69.1
78571;SHT31;67861;51.966;5.672;2023-08-06T03:48:21;19.1;69.0
78571;SHT31;67861;51.966;5.672;2023-08-06T03:50:50;19.1;69.0
78571;SHT31;67861;51.966;5.672;2023-08-06T03:53:18;19.2;69.1
78571;SHT31;67861;51.966;5.672;2023-08-06T03:55:47;19.2;69.1
78571;SHT31;67861;51.966;5.672;2023-08-06T03:58:15;19.2;69.1
78571;SHT31;67861;51.966;5.672;2023-08-06T04:00:43;19.2;69.1
78571;SHT31;67861;51.966;5.672;2023-08-06T04:03:12;19.2;68.9
78571;SHT31;67861;51.966;5.672;2023-08-06T04:05:42;19.2;69.1
78571;SHT31;67861;51.966;5.672;2023-08-06T04:08:11;19.2;69.1
78571;SHT31;67861;51.966;5.672;2023-08-06T04:10:39;19.2;68.8
78571;SHT31;67861;51.966;5.672;2023-08-06T04:13:08;19.2;69.0
78571;SHT31;67861;51.966;5.672;2023-08-06T04:15:36;19.2;68.9
78571;SHT31;67861;51.966;5.672;2023-08-06T04:18:05;19.2;68.9
78571;SHT31;67861;51.966;5.672;2023-08-06T04:20:33;19.2;69.0
78571;SHT31;67861;51.966;5.672;2023-08-06T04:23:06;19.2;69.0
78571;SHT31;67861;51.966;5.672;2023-08-06T04:25:34;19.2;69.0
78571;SHT31;67861;51.966;5.672;2023-08-06T04:28:03;19.2;69.1
78571;SHT31;67861;51.966;5.672;2023-08-06T04:30:31;19.2;69.2
78571;SHT31;67861;51.966;5.672;2023-08-06T04:33:00;19.2;69.3
78571;SHT31;67861;51.966;5.672;2023-08-06T04:35:28;19.1;69.4
78571;SHT31;67861;51.966;5.672;2023-08-06T04:37:57;19.1;69.6
78571;SHT31;67861;51.966;5.672;2023-08-06T04:40:25;19.1;69.5
78571;SHT31;67861;51.966;5.672;2023-08-06T04:42:54;19.1;69.5
78571;SHT31;67861;51.966;5.672;2023-08-06T04:45:22;19.1;69.7
78571;SHT31;67861;51.966;5.672;2023-08-06T04:47:51;19.1;69.7
78571;SHT31;67861;51.966;5.672;2023-08-06T04:50:20;19.0;70.0
78571;SHT31;67861;51.966;5.672;2023-08-06T04:52:48;19.0;70.2
78571;SHT31;67861;51.966;5.672;2023-08-06T04:55:17;19.0;70.2
78571;SHT31;67861;51.966;5.672;2023-08-06T04:57:45;19.0;70.4
78571;SHT31;67861;51.966;5.672;2023-08-06T05:00:14;19.0;70.7
78571;SHT31;67861;51.966;5.672;2023-08-06T05:02:43;19.0;70.6
78571;SHT31;67861;51.966;5.672;2023-08-06T05:05:11;18.9;70.8
78571;SHT31;67861;51.966;5.672;2023-08-06T05:07:40;18.9;70.9
78571;SHT31;67861;51.966;5.672;2023-08-06T05:10:09;18.9;71.1
78571;SHT31;67861;51.966;5.672;2023-08-06T05:12:37;18.9;71.1
78571;SHT31;67861;51.966;5.672;2023-08-06T05:15:06;18.9;71.2
78571;SHT31;67861;51.966;5.672;2023-08-06T05:17:35;18.9;71.4
78571;SHT31;67861;51.966;5.672;2023-08-06T05:20:04;18.8;71.5
78571;SHT31;67861;51.966;5.672;2023-08-06T05:22:32;18.8;71.6
78571;SHT31;67861;51.966;5.672;2023-08-06T05:25:01;18.8;71.9
78571;SHT31;67861;51.966;5.672;2023-08-06T05:27:29;18.9;71.8
78571;SHT31;67861;51.966;5.672;2023-08-06T05:29:58;18.9;71.7
78571;SHT31;67861;51.966;5.672;2023-08-06T05:32:26;18.9;71.7
78571;SHT31;67861;51.966;5.672;2023-08-06T05:34:55;18.9;71.8
78571;SHT31;67861;51.966;5.672;2023-08-06T05:37:23;18.9;71.6
78571;SHT31;67861;51.966;5.672;2023-08-06T05:39:52;19.0;71.7
78571;SHT31;67861;51.966;5.672;2023-08-06T05:42:20;19.0;71.8
78571;SHT31;67861;51.966;5.672;2023-08-06T05:44:49;19.0;71.6
78571;SHT31;67861;51.966;5.672;2023-08-06T05:47:17;19.1;71.5
78571;SHT31;67861;51.966;5.672;2023-08-06T05:49:46;19.1;71.3
78571;SHT31;67861;51.966;5.672;2023-08-06T05:52:15;19.1;71.2
78571;SHT31;67861;51.966;5.672;2023-08-06T05:54:45;19.1;71.1
78571;SHT31;67861;51.966;5.672;2023-08-06T05:57:13;19.1;71.0
78571;SHT31;67861;51.966;5.672;2023-08-06T05:59:42;19.2;70.9
78571;SHT31;67861;51.966;5.672;2023-08-06T06:02:11;19.2;70.9
78571;SHT31;67861;51.966;5.672;2023-08-06T06:04:40;19.2;70.9
78571;SHT31;67861;51.966;5.672;2023-08-06T06:07:09;19.2;71.1
78571;SHT31;67861;51.966;5.672;2023-08-06T06:09:38;19.3;70.4
78571;SHT31;67861;51.966;5.672;2023-08-06T06:12:08;19.3;70.7
78571;SHT31;67861;51.966;5.672;2023-08-06T06:14:36;19.3;70.6
78571;SHT31;67861;51.966;5.672;2023-08-06T06:17:05;19.3;70.7
78571;SHT31;67861;51.966;5.672;2023-08-06T06:19:33;19.3;70.1
78571;SHT31;67861;51.966;5.672;2023-08-06T06:22:02;19.3;69.9
78571;SHT31;67861;51.966;5.672;2023-08-06T06:24:31;19.3;70.0
78571;SHT31;67861;51.966;5.672;2023-08-06T06:27:00;19.3;70.2
78571;SHT31;67861;51.966;5.672;2023-08-06T06:29:28;19.3;70.3
78571;SHT31;67861;51.966;5.672;2023-08-06T06:31:57;19.3;70.2
78571;SHT31;67861;51.966;5.672;2023-08-06T06:34:25;19.3;70.2
78571;SHT31;67861;51.966;5.672;2023-08-06T06:36:54;19.3;70.2
78571;SHT31;67861;51.966;5.672;2023-08-06T06:39:22;19.3;70.3
78571;SHT31;67861;51.966;5.672;2023-08-06T06:41:51;19.3;70.4
78571;SHT31;67861;51.966;5.672;2023-08-06T06:44:19;19.4;70.5
78571;SHT31;67861;51.966;5.672;2023-08-06T06:46:48;19.4;70.0
78571;SHT31;67861;51.966;5.672;2023-08-06T06:49:17;19.4;70.0
78571;SHT31;67861;51.966;5.672;2023-08-06T06:51:45;19.4;69.8
78571;SHT31;67861;51.966;5.672;2023-08-06T06:54:14;19.4;70.0
78571;SHT31;67861;51.966;5.672;2023-08-06T06:56:42;19.4;70.1
78571;SHT31;67861;51.966;5.672;2023-08-06T06:59:10;19.4;69.8
78571;SHT31;67861;51.966;5.672;2023-08-06T07:01:39;19.4;69.6
78571;SHT31;67861;51.966;5.672;2023-08-06T07:04:07;19.4;69.8
78571;SHT31;67861;51.966;5.672;2023-08-06T07:06:37;19.4;69.8
78571;SHT31;67861;51.966;5.672;2023-08-06T07:09:06;19.4;70.2
78571;SHT31;67861;51.966;5.672;2023-08-06T07:11:37;19.5;70.2
78571;SHT31;67861;51.966;5.672;2023-08-06T07:14:05;19.5;70.2
78571;SHT31;67861;51.966;5.672;2023-08-06T07:16:34;19.5;69.9
78571;SHT31;67861;51.966;5.672;2023-08-06T07:19:02;19.5;70.3
78571;SHT31;67861;51.966;5.672;2023-08-06T07:21:32;19.5;70.3
78571;SHT31;67861;51.966;5.672;2023-08-06T07:24:00;19.5;71.2
78571;SHT31;67861;51.966;5.672;2023-08-06T07:26:29;19.6;71.2
78571;SHT31;67861;51.966;5.672;2023-08-06T07:28:57;19.6;71.7
78571;SHT31;67861;51.966;5.672;2023-08-06T07:31:26;19.6;71.4
78571;SHT31;67861;51.966;5.672;2023-08-06T07:33:56;19.6;71.9
78571;SHT31;67861;51.966;5.672;2023-08-06T07:36:27;19.6;71.8
78571;SHT31;67861;51.966;5.672;2023-08-06T07:38:55;19.7;71.9
78571;SHT31;67861;51.966;5.672;2023-08-06T07:41:24;19.7;72.5
78571;SHT31;67861;51.966;5.672;2023-08-06T07:43:52;19.8;72.7
78571;SHT31;67861;51.966;5.672;2023-08-06T07:46:21;19.8;72.2
78571;SHT31;67861;51.966;5.672;2023-08-06T07:48:49;19.9;70.8
78571;SHT31;67861;51.966;5.672;2023-08-06T07:51:18;19.9;71.5
78571;SHT31;67861;51.966;5.672;2023-08-06T07:53:46;19.9;71.6
78571;SHT31;67861;51.966;5.672;2023-08-06T07:56:16;20.0;70.8
78571;SHT31;67861;51.966;5.672;2023-08-06T07:58:45;20.0;69.6
78571;SHT31;67861;51.966;5.672;2023-08-06T08:01:13;20.1;69.1
78571;SHT31;67861;51.966;5.672;2023-08-06T08:03:42;20.1;69.1
78571;SHT31;67861;51.966;5.672;2023-08-06T08:06:10;20.1;69.9
78571;SHT31;67861;51.966;5.672;2023-08-06T08:08:38;20.1;69.7
78571;SHT31;67861;51.966;5.672;2023-08-06T08:11:07;20.1;69.3
78571;SHT31;67861;51.966;5.672;2023-08-06T08:13:36;20.1;68.7
78571;SHT31;67861;51.966;5.672;2023-08-06T08:16:05;20.1;69.2
78571;SHT31;67861;51.966;5.672;2023-08-06T08:18:33;20.1;69.1
78571;SHT31;67861;51.966;5.672;2023-08-06T08:21:02;20.1;69.8
78571;SHT31;67861;51.966;5.672;2023-08-06T08:23:30;20.1;69.0
78571;SHT31;67861;51.966;5.672;2023-08-06T08:26:00;20.1;69.5
78571;SHT31;67861;51.966;5.672;2023-08-06T08:28:30;20.1;69.8
78571;SHT31;67861;51.966;5.672;2023-08-06T08:30:58;20.0;69.3
78571;SHT31;67861;51.966;5.672;2023-08-06T08:33:27;20.0;69.8
78571;SHT31;67861;51.966;5.672;2023-08-06T08:35:55;20.0;69.9
78571;SHT31;67861;51.966;5.672;2023-08-06T08:38:24;20.0;70.0
78571;SHT31;67861;51.966;5.672;2023-08-06T08:40:54;20.0;70.1
78571;SHT31;67861;51.966;5.672;2023-08-06T08:43:23;20.0;69.0
78571;SHT31;67861;51.966;5.672;2023-08-06T08:45:53;20.0;68.6
78571;SHT31;67861;51.966;5.672;2023-08-06T08:48:26;20.0;69.1
78571;SHT31;67861;51.966;5.672;2023-08-06T08:50:56;20.0;69.2
78571;SHT31;67861;51.966;5.672;2023-08-06T08:53:25;19.9;69.2
78571;SHT31;67861;51.966;5.672;2023-08-06T08:55:55;19.9;69.8
78571;SHT31;67861;51.966;5.672;2023-08-06T08:58:23;19.9;68.6
78571;SHT31;67861;51.966;5.672;2023-08-06T09:00:53;19.8;68.9
78571;SHT31;67861;51.966;5.672;2023-08-06T09:03:22;19.8;67.8
78571;SHT31;67861;51.966;5.672;2023-08-06T09:05:53;19.7;68.7
78571;SHT31;67861;51.966;5.672;2023-08-06T09:08:29;19.6;68.5
78571;SHT31;67861;51.966;5.672;2023-08-06T09:11:01;19.6;68.5
78571;SHT31;67861;51.966;5.672;2023-08-06T09:13:31;19.5;68.7
78571;SHT31;67861;51.966;5.672;2023-08-06T09:15:59;19.5;68.5
78571;SHT31;67861;51.966;5.672;2023-08-06T09:18:30;19.4;69.5
78571;SHT31;67861;51.966;5.672;2023-08-06T09:20:58;19.4;68.7
78571;SHT31;67861;51.966;5.672;2023-08-06T09:23:31;19.3;68.8
78571;SHT31;67861;51.966;5.672;2023-08-06T09:26:00;19.3;68.8
78571;SHT31;67861;51.966;5.672;2023-08-06T09:28:36;19.2;69.7
78571;SHT31;67861;51.966;5.672;2023-08-06T09:31:08;19.2;69.6
78571;SHT31;67861;51.966;5.672;2023-08-06T09:33:38;19.1;68.8
78571;SHT31;67861;51.966;5.672;2023-08-06T09:36:09;19.1;69.3
78571;SHT31;67861;51.966;5.672;2023-08-06T09:38:41;19.1;69.5
78571;SHT31;67861;51.966;5.672;2023-08-06T09:41:10;19.0;69.8
78571;SHT31;67861;51.966;5.672;2023-08-06T09:43:42;19.0;70.1
78571;SHT31;67861;51.966;5.672;2023-08-06T09:46:14;18.9;69.4
78571;SHT31;67861;51.966;5.672;2023-08-06T09:48:44;18.9;70.4
78571;SHT31;67861;51.966;5.672;2023-08-06T09:51:13;18.9;70.4
78571;SHT31;67861;51.966;5.672;2023-08-06T09:53:44;18.8;70.5
78571;SHT31;67861;51.966;5.672;2023-08-06T09:56:15;18.8;70.4
78571;SHT31;67861;51.966;5.672;2023-08-06T09:58:47;18.8;70.1
78571;SHT31;67861;51.966;5.672;2023-08-06T10:01:19;18.8;70.7
78571;SHT31;67861;51.966;5.672;2023-08-06T10:03:49;18.7;70.4
78571;SHT31;67861;51.966;5.672;2023-08-06T10:06:20;18.7;70.9
78571;SHT31;67861;51.966;5.672;2023-08-06T10:08:49;18.6;71.2
78571;SHT31;67861;51.966;5.672;2023-08-06T10:11:21;18.6;71.3
78571;SHT31;67861;51.966;5.672;2023-08-06T10:13:57;18.5;71.1
78571;SHT31;67861;51.966;5.672;2023-08-06T10:16:27;18.5;71.9
78571;SHT31;67861;51.966;5.672;2023-08-06T10:18:57;18.4;71.6
78571;SHT31;67861;51.966;5.672;2023-08-06T10:21:28;18.4;72.5
78571;SHT31;67861;51.966;5.672;2023-08-06T10:23:57;18.4;72.4
78571;SHT31;67861;51.966;5.672;2023-08-06T10:26:28;18.4;72.5
78571;SHT31;67861;51.966;5.672;2023-08-06T10:28:57;18.4;72.9
78571;SHT31;67861;51.966;5.672;2023-08-06T10:32:07;18.3;73.0
78571;SHT31;67861;51.966;5.672;2023-08-06T10:34:55;18.3;72.5
78571;SHT31;67861;51.966;5.672;2023-08-06T10:37:37;18.3;72.5
78571;SHT31;67861;51.966;5.672;2023-08-06T10:40:07;18.3;72.6
78571;SHT31;67861;51.966;5.672;2023-08-06T10:42:36;18.3;73.1
78571;SHT31;67861;51.966;5.672;2023-08-06T10:45:16;18.3;72.8
78571;SHT31;67861;51.966;5.672;2023-08-06T10:47:46;18.3;73.5
78571;SHT31;67861;51.966;5.672;2023-08-06T10:50:16;18.2;73.9
78571;SHT31;67861;51.966;5.672;2023-08-06T10:52:46;18.2;74.1
78571;SHT31;67861;51.966;5.672;2023-08-06T10:55:25;18.2;74.1
78571;SHT31;67861;51.966;5.672;2023-08-06T10:57:54;18.3;73.7
78571;SHT31;67861;51.966;5.672;2023-08-06T11:00:23;18.3;73.9
78571;SHT31;67861;51.966;5.672;2023-08-06T11:02:53;18.3;73.6
78571;SHT31;67861;51.966;5.672;2023-08-06T11:05:22;18.3;73.8
78571;SHT31;67861;51.966;5.672;2023-08-06T11:07:50;18.3;73.2
78571;SHT31;67861;51.966;5.672;2023-08-06T11:10:21;18.3;73.6
78571;SHT31;67861;51.966;5.672;2023-08-06T11:12:49;18.4;72.8
78571;SHT31;67861;51.966;5.672;2023-08-06T11:15:20;18.4;72.5
78571;SHT31;67861;51.966;5.672;2023-08-06T11:17:50;18.4;72.7
78571;SHT31;67861;51.966;5.672;2023-08-06T11:20:20;18.4;73.2
78571;SHT31;67861;51.966;5.672;2023-08-06T11:22:52;18.4;73.0
78571;SHT31;67861;51.966;5.672;2023-08-06T11:25:22;18.4;73.7
78571;SHT31;67861;51.966;5.672;2023-08-06T11:27:50;18.4;73.5
78571;SHT31;67861;51.966;5.672;2023-08-06T11:30:19;18.4;73.3
78571;SHT31;67861;51.966;5.672;2023-08-06T11:32:48;18.4;73.0
78571;SHT31;67861;51.966;5.672;2023-08-06T11:35:17;18.4;72.7
78571;SHT31;67861;51.966;5.672;2023-08-06T11:37:46;18.4;72.8
78571;SHT31;67861;51.966;5.672;2023-08-06T11:40:17;18.4;73.0
78571;SHT31;67861;51.966;5.672;2023-08-06T11:42:46;18.4;73.4
78571;SHT31;67861;51.966;5.672;2023-08-06T11:45:15;18.4;73.1
78571;SHT31;67861;51.966;5.672;2023-08-06T11:47:51;18.4;73.1
78571;SHT31;67861;51.966;5.672;2023-08-06T11:50:26;18.4;72.6
78571;SHT31;67861;51.966;5.672;2023-08-06T11:52:58;18.4;72.4
78571;SHT31;67861;51.966;5.672;2023-08-06T11:55:28;18.4;71.9
78571;SHT31;67861;51.966;5.672;2023-08-06T11:57:57;18.4;71.9
78571;SHT31;67861;51.966;5.672;2023-08-06T12:00:26;18.4;72.3
78571;SHT31;67861;51.966;5.672;2023-08-06T12:02:56;18.4;72.3
78571;SHT31;67861;51.966;5.672;2023-08-06T12:05:30;18.4;72.0
78571;SHT31;67861;51.966;5.672;2023-08-06T12:08:01;18.4;72.2
78571;SHT31;67861;51.966;5.672;2023-08-06T12:10:31;18.4;72.3
78571;SHT31;67861;51.966;5.672;2023-08-06T12:13:00;18.4;72.1
78571;SHT31;67861;51.966;5.672;2023-08-06T12:15:29;18.4;72.6
78571;SHT31;67861;51.966;5.672;2023-08-06T12:17:58;18.4;72.9
78571;SHT31;67861;51.966;5.672;2023-08-06T12:20:28;18.4;73.0
78571;SHT31;67861;51.966;5.672;2023-08-06T12:22:57;18.4;72.5
78571;SHT31;67861;51.966;5.672;2023-08-06T12:25:28;18.4;70.5
78571;SHT31;67861;51.966;5.672;2023-08-06T12:27:59;18.4;70.3
78571;SHT31;67861;51.966;5.672;2023-08-06T12:30:29;18.4;68.9
78571;SHT31;67861;51.966;5.672;2023-08-06T12:32:58;18.4;70.2
78571;SHT31;67861;51.966;5.672;2023-08-06T12:35:26;18.4;69.7
78571;SHT31;67861;51.966;5.672;2023-08-06T12:37:55;18.4;69.9
78571;SHT31;67861;51.966;5.672;2023-08-06T12:40:25;18.3;71.4
78571;SHT31;67861;51.966;5.672;2023-08-06T12:42:54;18.3;70.0
78571;SHT31;67861;51.966;5.672;2023-08-06T12:45:22;18.3;71.5
78571;SHT31;67861;51.966;5.672;2023-08-06T12:47:51;18.3;71.7
78571;SHT31;67861;51.966;5.672;2023-08-06T12:50:20;18.3;72.0
78571;SHT31;67861;51.966;5.672;2023-08-06T12:52:48;18.3;71.3
78571;SHT31;67861;51.966;5.672;2023-08-06T12:55:19;18.3;72.4
78571;SHT31;67861;51.966;5.672;2023-08-06T12:57:49;18.3;73.0
78571;SHT31;67861;51.966;5.672;2023-08-06T13:00:18;18.3;72.5
78571;SHT31;67861;51.966;5.672;2023-08-06T13:02:46;18.3;73.5
78571;SHT31;67861;51.966;5.672;2023-08-06T13:05:15;18.3;73.3
78571;SHT31;67861;51.966;5.672;2023-08-06T13:07:43;18.3;73.4
78571;SHT31;67861;51.966;5.672;2023-08-06T13:10:12;18.4;72.3
78571;SHT31;67861;51.966;5.672;2023-08-06T13:12:40;18.4;72.8
78571;SHT31;67861;51.966;5.672;2023-08-06T13:15:11;18.4;73.4
78571;SHT31;67861;51.966;5.672;2023-08-06T13:17:40;18.4;72.5
78571;SHT31;67861;51.966;5.672;2023-08-06T13:20:11;18.4;72.6
78571;SHT31;67861;51.966;5.672;2023-08-06T13:22:40;18.5;72.8
78571;SHT31;67861;51.966;5.672;2023-08-06T13:25:13;18.5;73.8
78571;SHT31;67861;51.966;5.672;2023-08-06T13:27:43;18.5;74.1
78571;SHT31;67861;51.966;5.672;2023-08-06T13:30:12;18.5;74.1
78571;SHT31;67861;51.966;5.672;2023-08-06T13:32:41;18.6;73.2
78571;SHT31;67861;51.966;5.672;2023-08-06T13:35:10;18.6;72.8
78571;SHT31;67861;51.966;5.672;2023-08-06T13:37:38;18.6;73.9
78571;SHT31;67861;51.966;5.672;2023-08-06T13:40:07;18.6;73.6
78571;SHT31;67861;51.966;5.672;2023-08-06T13:42:37;18.7;73.4
78571;SHT31;67861;51.966;5.672;2023-08-06T13:45:06;18.7;73.1
78571;SHT31;67861;51.966;5.672;2023-08-06T13:47:35;18.7;73.1
78571;SHT31;67861;51.966;5.672;2023-08-06T13:50:04;18.7;73.5
78571;SHT31;67861;51.966;5.672;2023-08-06T13:52:35;18.8;74.2
78571;SHT31;67861;51.966;5.672;2023-08-06T13:55:04;18.8;74.1
78571;SHT31;67861;51.966;5.672;2023-08-06T13:57:34;18.8;74.1
78571;SHT31;67861;51.966;5.672;2023-08-06T14:00:04;18.9;73.9
78571;SHT31;67861;51.966;5.672;2023-08-06T14:02:33;18.9;73.0
78571;SHT31;67861;51.966;5.672;2023-08-06T14:05:01;18.9;73.1
78571;SHT31;67861;51.966;5.672;2023-08-06T14:07:30;18.9;72.8
78571;SHT31;67861;51.966;5.672;2023-08-06T14:09:58;18.9;72.9
78571;SHT31;67861;51.966;5.672;2023-08-06T14:12:27;18.9;72.7
78571;SHT31;67861;51.966;5.672;2023-08-06T14:14:56;18.9;72.8
78571;SHT31;67861;51.966;5.672;2023-08-06T14:17:27;19.0;73.6
78571;SHT31;67861;51.966;5.672;2023-08-06T14:19:55;19.0;72.6
78571;SHT31;67861;51.966;5.672;2023-08-06T14:22:24;19.0;72.5
78571;SHT31;67861;51.966;5.672;2023-08-06T14:24:53;19.0;72.8
78571;SHT31;67861;51.966;5.672;2023-08-06T14:27:22;19.0;73.3
78571;SHT31;67861;51.966;5.672;2023-08-06T14:29:51;19.0;73.1
78571;SHT31;67861;51.966;5.672;2023-08-06T14:32:20;19.0;72.8
78571;SHT31;67861;51.966;5.672;2023-08-06T14:34:48;19.0;72.7
78571;SHT31;67861;51.966;5.672;2023-08-06T14:37:17;19.0;73.3
78571;SHT31;67861;51.966;5.672;2023-08-06T14:39:46;19.0;72.7
78571;SHT31;67861;51.966;5.672;2023-08-06T14:42:14;19.0;73.3
78571;SHT31;67861;51.966;5.672;2023-08-06T14:44:43;19.0;73.1
78571;SHT31;67861;51.966;5.672;2023-08-06T14:47:12;19.0;73.4
78571;SHT31;67861;51.966;5.672;2023-08-06T14:49:40;19.0;72.9
78571;SHT31;67861;51.966;5.672;2023-08-06T14:52:09;19.1;73.2
78571;SHT31;67861;51.966;5.672;2023-08-06T14:54:38;19.1;72.7
78571;SHT31;67861;51.966;5.672;2023-08-06T14:57:06;19.1;72.8
78571;SHT31;67861;51.966;5.672;2023-08-06T14:59:36;19.1;72.7
78571;SHT31;67861;51.966;5.672;2023-08-06T15:02:05;19.1;73.4
78571;SHT31;67861;51.966;5.672;2023-08-06T15:04:34;19.1;73.3
78571;SHT31;67861;51.966;5.672;2023-08-06T15:07:03;19.1;72.8
78571;SHT31;67861;51.966;5.672;2023-08-06T15:09:31;19.1;73.3
78571;SHT31;67861;51.966;5.672;2023-08-06T15:12:00;19.1;73.2
78571;SHT31;67861;51.966;5.672;2023-08-06T15:14:29;19.1;73.0
78571;SHT31;67861;51.966;5.672;2023-08-06T15:16:59;19.1;73.4
78571;SHT31;67861;51.966;5.672;2023-08-06T15:19:28;19.1;73.4
78571;SHT31;67861;51.966;5.672;2023-08-06T15:21:56;19.2;72.8
78571;SHT31;67861;51.966;5.672;2023-08-06T15:24:24;19.2;72.8
78571;SHT31;67861;51.966;5.672;2023-08-06T15:26:53;19.2;72.7
78571;SHT31;67861;51.966;5.672;2023-08-06T15:29:22;19.2;72.7
78571;SHT31;67861;51.966;5.672;2023-08-06T15:31:50;19.2;72.9
78571;SHT31;67861;51.966;5.672;2023-08-06T15:34:20;19.2;72.8
78571;SHT31;67861;51.966;5.672;2023-08-06T15:36:49;19.1;72.4
78571;SHT31;67861;51.966;5.672;2023-08-06T15:39:17;19.1;72.9
78571;SHT31;67861;51.966;5.672;2023-08-06T15:41:46;19.1;72.5
78571;SHT31;67861;51.966;5.672;2023-08-06T15:44:15;19.1;72.9
78571;SHT31;67861;51.966;5.672;2023-08-06T15:46:43;19.1;72.3
78571;SHT31;67861;51.966;5.672;2023-08-06T15:49:12;19.1;72.1
78571;SHT31;67861;51.966;5.672;2023-08-06T15:51:40;19.1;71.9
78571;SHT31;67861;51.966;5.672;2023-08-06T15:54:10;19.1;71.6
78571;SHT31;67861;51.966;5.672;2023-08-06T15:56:38;19.1;71.6
78571;SHT31;67861;51.966;5.672;2023-08-06T15:59:23;19.1;71.7
78571;SHT31;67861;51.966;5.672;2023-08-06T16:01:52;19.0;72.5
78571;SHT31;67861;51.966;5.672;2023-08-06T16:04:24;19.0;72.4
78571;SHT31;67861;51.966;5.672;2023-08-06T16:06:52;19.0;72.1
78571;SHT31;67861;51.966;5.672;2023-08-06T16:09:21;19.0;70.6
78571;SHT31;67861;51.966;5.672;2023-08-06T16:11:52;19.0;70.7
78571;SHT31;67861;51.966;5.672;2023-08-06T16:14:21;19.0;70.3
78571;SHT31;67861;51.966;5.672;2023-08-06T16:16:49;18.9;70.8